Time;durP1;ratioP1;P1;durP2;ratioP2;P2;SDS_P1;SDS_P2;PMS_P1;PMS_P2;Temp;Humidity;BMP_temperature;BMP_pressure;BME280_temperature;BME280_humidity;BME280_pressure;Samples;Min_cycle;Max_cycle;Signal;HPM_P1;HPM_P2
2022/12/03 00:01:42;;;;;;;20.77;11.77;;;;;;;7.13;89.35;95519.19;4993034;28;20180;-76
2022/12/03 00:04:07;;;;;;;20.50;11.70;;;;;;;7.31;89.73;95539.84;4990988;28;20177;-76
2022/12/03 00:06:33;;;;;;;19.30;10.90;;;;;;;7.14;89.96;95518.19;5002012;28;20232;-76
2022/12/03 00:08:58;;;;;;;23.10;11.57;;;;;;;7.31;89.95;95543.28;4993159;28;20569;-76
2022/12/03 00:11:23;;;;;;;24.37;11.77;;;;;;;7.19;89.75;95527.13;4993332;28;20185;-76
2022/12/03 00:13:49;;;;;;;20.40;12.40;;;;;;;7.10;90.08;95543.06;4991871;28;20439;-76
2022/12/03 00:16:14;;;;;;;16.57;9.37;;;;;;;7.19;90.64;95555.94;4992950;28;20197;-76
2022/12/03 00:18:40;;;;;;;19.13;12.00;;;;;;;6.93;90.62;95524.03;4991487;28;20407;-76
2022/12/03 00:21:05;;;;;;;18.47;10.53;;;;;;;6.97;90.65;95525.31;4991502;28;20180;-77
2022/12/03 00:23:30;;;;;;;19.07;10.37;;;;;;;6.94;90.98;95545.78;4992853;28;20683;-77
2022/12/03 00:25:56;;;;;;;17.37;10.00;;;;;;;7.01;91.11;95558.00;4991619;28;20267;-77
2022/12/03 00:28:21;;;;;;;16.00;9.23;;;;;;;6.94;91.01;95556.25;4992723;28;20252;-77
2022/12/03 00:30:47;;;;;;;19.87;10.40;;;;;;;6.90;90.73;95537.47;4992790;28;20176;-77
2022/12/03 00:33:12;;;;;;;16.47;9.33;;;;;;;7.05;90.94;95564.53;4992484;28;20641;-76
2022/12/03 00:35:37;;;;;;;14.60;8.53;;;;;;;7.03;90.96;95563.06;4992316;28;20574;-76
2022/12/03 00:38:03;;;;;;;16.83;9.27;;;;;;;6.95;90.99;95553.47;4991993;28;20411;-77
2022/12/03 00:40:28;;;;;;;15.40;9.30;;;;;;;6.97;91.41;95556.72;4992720;28;20161;-77
2022/12/03 00:42:54;;;;;;;14.93;9.00;;;;;;;6.89;91.21;95556.78;4991920;28;20935;-77
2022/12/03 00:45:19;;;;;;;16.37;9.87;;;;;;;7.01;91.37;95563.25;4992540;28;20942;-76
2022/12/03 00:47:44;;;;;;;15.05;8.95;;;;;;;6.90;91.43;95565.44;4991976;28;20407;-76
2022/12/03 00:50:10;;;;;;;14.90;9.20;;;;;;;6.89;91.87;95576.88;4990576;28;20428;-76
2022/12/03 00:52:36;;;;;;;15.87;8.73;;;;;;;6.85;91.75;95576.41;4991993;28;20425;-77
2022/12/03 00:55:01;;;;;;;15.17;8.57;;;;;;;6.78;92.01;95573.66;4991517;28;20974;-76
2022/12/03 00:57:27;;;;;;;14.10;8.13;;;;;;;6.74;92.14;95577.59;4991069;28;20192;-76
2022/12/03 00:59:52;;;;;;;15.50;9.60;;;;;;;6.59;92.69;95550.50;4989921;28;20415;-76
2022/12/03 01:02:17;;;;;;;14.97;8.43;;;;;;;6.77;92.51;95581.66;4992290;28;20240;-76
2022/12/03 01:04:43;;;;;;;15.63;8.13;;;;;;;6.80;91.50;95573.50;4992305;28;20180;-76
2022/12/03 01:07:08;;;;;;;12.53;7.70;;;;;;;6.94;91.15;95590.25;4991844;28;20342;-77
2022/12/03 01:09:35;;;;;;;14.70;8.73;;;;;;;6.86;91.31;95579.84;4991494;28;20455;-76
2022/12/03 01:12:00;;;;;;;13.07;7.40;;;;;;;6.92;91.02;95577.34;4992145;28;20624;-76
2022/12/03 01:14:26;;;;;;;13.33;7.70;;;;;;;6.99;91.01;95583.56;4991938;28;20173;-77
2022/12/03 01:16:51;;;;;;;14.87;7.67;;;;;;;6.95;90.83;95589.28;4991450;28;20440;-76
2022/12/03 01:19:18;;;;;;;16.23;9.40;;;;;;;6.84;91.31;95600.94;4990562;28;20408;-76
2022/12/03 01:21:46;;;;;;;14.80;7.70;;;;;;;6.63;91.53;95559.66;4990605;28;20184;-76
2022/12/03 01:24:12;;;;;;;15.50;8.73;;;;;;;6.90;91.70;95600.28;4992016;28;20888;-77
2022/12/03 01:26:37;;;;;;;14.70;8.63;;;;;;;6.78;91.46;95576.25;4992013;28;20161;-77
2022/12/03 01:29:03;;;;;;;28.63;14.53;;;;;;;7.03;91.24;95607.56;4991963;28;20180;-77
2022/12/03 01:34:13;;;;;;;16.33;9.00;;;;;;;6.96;91.18;95598.78;4991794;28;20670;-77
2022/12/03 01:36:39;;;;;;;17.60;9.00;;;;;;;6.92;91.01;95600.91;4991665;28;20193;-77
2022/12/03 01:39:04;;;;;;;17.60;11.50;;;;;;;6.74;91.29;95582.03;4989068;28;20420;-77
2022/12/03 01:41:32;;;;;;;15.97;9.67;;;;;;;6.68;91.27;95575.66;4991546;28;20177;-77
2022/12/03 01:43:57;;;;;;;17.83;10.70;;;;;;;6.74;91.68;95576.78;4973811;28;20412;-77
2022/12/03 01:46:28;;;;;;;18.00;10.43;;;;;;;6.89;91.92;95590.78;4991811;28;20188;-77
2022/12/03 01:48:55;;;;;;;15.27;9.80;;;;;;;6.80;91.21;95574.31;4991699;28;20185;-77
2022/12/03 01:51:21;;;;;;;16.87;9.63;;;;;;;6.66;91.31;95558.50;4991819;28;20204;-77
2022/12/03 01:53:46;;;;;;;16.50;9.73;;;;;;;6.70;91.53;95576.31;4974438;28;20563;-77
2022/12/03 01:56:14;;;;;;;20.33;11.57;;;;;;;6.71;92.00;95577.94;4988653;28;20435;-77
2022/12/03 01:58:41;;;;;;;16.57;9.33;;;;;;;6.87;92.36;95592.75;4991286;28;20176;-77
2022/12/03 02:01:11;;;;;;;16.27;9.33;;;;;;;6.91;91.52;95588.00;4991201;28;20177;-77
2022/12/03 02:03:37;;;;;;;16.27;8.47;;;;;;;6.92;91.66;95572.09;4991448;28;20243;-77
2022/12/03 02:06:03;;;;;;;18.97;9.50;;;;;;;7.05;90.84;95595.94;4991904;28;20700;-77
2022/12/03 02:08:29;;;;;;;15.43;8.90;;;;;;;6.96;90.09;95570.81;4995325;28;20199;-77
2022/12/03 02:11:07;;;;;;;16.73;10.15;;;;;;;7.04;90.76;95593.50;4994552;28;20420;-76
2022/12/03 02:13:33;;;;;;;16.97;9.63;;;;;;;6.98;91.10;95591.56;4995317;28;20175;-77
2022/12/03 02:15:59;;;;;;;15.60;8.53;;;;;;;6.94;90.80;95567.53;4995346;28;20978;-77
2022/12/03 02:18:24;;;;;;;19.73;10.67;;;;;;;7.06;90.68;95574.03;4994506;28;20476;-77
2022/12/03 02:21:07;;;;;;;18.13;11.47;;;;;;;6.95;90.93;95576.19;4994008;28;20419;-77
2022/12/03 02:24:03;;;;;;;16.58;10.93;;;;;;;6.99;91.09;95580.94;4993490;28;20419;-77
2022/12/03 02:26:29;;;;;;;16.03;9.43;;;;;;;7.18;90.34;95593.59;4977888;28;20169;-77
2022/12/03 02:28:55;;;;;;;19.77;10.40;;;;;;;7.15;90.27;95595.75;4994861;28;20244;-77
2022/12/03 02:31:21;;;;;;;52.87;23.93;;;;;;;7.18;89.88;95587.53;4994811;28;20169;-77
2022/12/03 02:33:47;;;;;;;17.45;10.45;;;;;;;7.06;90.12;95587.13;4994327;28;20413;-77
2022/12/03 02:36:12;;;;;;;19.10;10.37;;;;;;;6.92;90.87;95551.19;4977472;28;20204;-77
2022/12/03 02:38:40;;;;;;;18.67;9.80;;;;;;;7.01;90.15;95565.03;4994831;28;20173;-77
2022/12/03 02:41:08;;;;;;;18.00;9.47;;;;;;;7.00;90.37;95559.00;4994551;28;20260;-77
2022/12/03 02:43:34;;;;;;;17.23;9.33;;;;;;;7.17;90.44;95591.16;4994561;28;20177;-77
2022/12/03 02:46:02;;;;;;;43.97;20.50;;;;;;;7.19;90.43;95589.97;4994741;28;20236;-77
2022/12/03 02:48:33;;;;;;;46.97;20.80;;;;;;;7.09;89.88;95571.03;4976903;28;20651;-77
2022/12/03 02:51:03;;;;;;;42.47;20.50;;;;;;;7.24;89.99;95591.28;4994606;28;20173;-77
2022/12/03 02:53:32;;;;;;;35.33;17.20;;;;;;;7.28;90.67;95592.56;4976712;28;20181;-76
2022/12/03 02:56:01;;;;;;;40.73;18.77;;;;;;;7.30;89.99;95583.53;4994212;28;20607;-76
2022/12/03 02:58:30;;;;;;;30.37;14.73;;;;;;;7.20;90.58;95568.06;4994455;28;20212;-76
2022/12/03 03:00:55;;;;;;;17.07;9.03;;;;;;;7.30;89.77;95585.34;4994251;28;20517;-76
2022/12/03 03:03:23;;;;;;;14.53;8.23;;;;;;;7.28;89.57;95592.56;4994157;28;20180;-77
2022/12/03 03:05:49;;;;;;;12.90;8.03;;;;;;;7.13;89.70;95571.53;4993905;28;20222;-76
2022/12/03 03:08:16;;;;;;;16.95;9.88;;;;;;;6.95;89.48;95542.19;4992424;28;20439;-77
2022/12/03 03:10:42;;;;;;;17.20;9.67;;;;;;;7.11;90.41;95576.94;4994157;28;20177;-77
2022/12/03 03:13:11;;;;;;;12.93;8.65;;;;;;;7.12;90.18;95593.47;4993411;28;20413;-76
2022/12/03 03:15:37;;;;;;;13.37;8.90;;;;;;;7.14;90.23;95586.25;4994190;28;20223;-76
2022/12/03 03:18:03;;;;;;;14.00;8.23;;;;;;;7.06;90.29;95578.44;4993506;28;20714;-76
2022/12/03 03:20:29;;;;;;;13.70;8.50;;;;;;;7.14;89.95;95578.41;4994040;28;20644;-77
2022/12/03 03:23:09;;;;;;;12.70;8.37;;;;;;;7.09;90.05;95580.72;4993894;28;20176;-77
2022/12/03 03:25:34;;;;;;;14.23;7.60;;;;;;;6.83;89.96;95534.69;4993750;28;20168;-77
2022/12/03 03:28:00;;;;;;;13.70;8.30;;;;;;;6.73;90.32;95549.00;4992319;28;20772;-76
2022/12/03 03:30:26;;;;;;;12.77;9.35;;;;;;;6.72;91.00;95552.59;4992206;28;20408;-76
2022/12/03 03:32:51;;;;;;;14.00;8.30;;;;;;;6.74;91.93;95568.94;4992562;28;20184;-76
2022/12/03 03:35:17;;;;;;;14.53;7.97;;;;;;;6.72;91.31;95553.41;4993227;28;20287;-76
2022/12/03 03:37:42;;;;;;;14.33;9.53;;;;;;;6.58;91.35;95542.81;4992239;28;20843;-76
2022/12/03 03:40:08;;;;;;;12.07;7.97;;;;;;;6.90;91.24;95589.00;4993674;28;20180;-76
2022/12/03 03:42:35;;;;;;;13.37;8.33;;;;;;;6.87;91.04;95582.28;4993773;28;20189;-76
2022/12/03 03:45:00;;;;;;;15.10;8.10;;;;;;;6.94;90.83;95585.03;4993571;28;20165;-76
2022/12/03 03:47:26;;;;;;;11.53;7.13;;;;;;;6.92;90.33;95582.56;4993604;28;20560;-77
2022/12/03 03:49:52;;;;;;;13.33;7.97;;;;;;;6.91;90.44;95575.75;4993471;28;20219;-76
2022/12/03 03:52:18;;;;;;;13.40;8.53;;;;;;;6.86;90.36;95593.72;4992456;28;20494;-76
2022/12/03 03:54:45;;;;;;;13.57;8.23;;;;;;;6.66;90.90;95558.50;4993472;28;20175;-76
2022/12/03 03:57:10;;;;;;;12.23;8.75;;;;;;;6.76;91.36;95588.69;4991966;28;20431;-76
2022/12/03 03:59:36;;;;;;;12.32;8.18;;;;;;;6.70;91.53;95580.72;4993566;28;20356;-76
2022/12/03 04:02:01;;;;;;;13.60;8.37;;;;;;;6.68;91.05;95556.50;4992695;28;20243;-76
2022/12/03 04:04:34;;;;;;;13.63;8.03;;;;;;;6.87;90.84;95571.00;4993178;28;20212;-77
2022/12/03 04:06:59;;;;;;;17.67;8.00;;;;;;;6.88;90.27;95581.31;4992710;28;20431;-76
2022/12/03 04:09:24;;;;;;;15.03;8.90;;;;;;;6.93;90.79;95597.31;4991804;28;20416;-76
2022/12/03 04:14:34;;;;;;;12.80;7.77;;;;;;;6.64;91.12;95587.44;4992234;28;20474;-76
2022/12/03 04:16:59;;;;;;;13.43;8.07;;;;;;;6.44;91.62;95575.72;4991933;28;20854;-76
2022/12/03 04:19:24;;;;;;;14.20;8.80;;;;;;;6.55;92.35;95619.03;4992219;28;20535;-75
2022/12/03 04:24:34;;;;;;;13.00;7.50;;;;;;;6.72;92.40;95620.59;4993006;28;20259;-76
2022/12/03 04:29:43;;;;;;;14.43;7.57;;;;;;;6.63;91.51;95601.50;4991507;28;20180;-76
2022/12/03 04:37:36;;;;;;;12.83;7.57;;;;;;;6.89;91.96;95632.66;4992464;28;20188;-76
2022/12/03 04:40:59;;;;;;;12.87;7.53;;;;;;;6.93;91.42;95630.50;4992338;28;20165;-76
2022/12/03 04:42:47;;;;;;;10.90;6.67;;;;;;;6.91;91.50;95635.13;4992393;28;20177;-76
2022/12/03 04:45:13;;;;;;;12.07;7.67;;;;;;;6.88;91.03;95627.59;4991898;28;20419;-75
2022/12/03 04:47:38;;;;;;;15.43;7.20;;;;;;;6.74;90.96;95597.72;4974294;28;20185;-76
2022/12/03 04:50:04;;;;;;;9.93;6.33;;;;;;;6.93;91.02;95628.72;4992247;28;20640;-76
2022/12/03 04:52:30;;;;;;;10.53;6.37;;;;;;;6.93;91.03;95620.84;4992175;28;20169;-76
2022/12/03 04:54:55;;;;;;;12.37;8.10;;;;;;;6.66;91.56;95590.69;4990437;28;20454;-76
2022/12/03 04:57:21;;;;;;;9.73;6.20;;;;;;;6.83;91.06;95613.19;4992239;28;20690;-75
2022/12/03 04:59:47;;;;;;;11.48;6.95;;;;;;;6.11;91.15;95516.66;4990980;28;20486;-76
2022/12/03 05:02:12;;;;;;;13.33;7.53;;;;;;;6.72;91.69;95624.03;4990918;28;20895;-75
2022/12/03 05:04:37;;;;;;;9.93;6.93;;;;;;;6.80;91.89;95623.19;4992321;28;20169;-76
2022/12/03 05:07:03;;;;;;;9.83;6.30;;;;;;;6.76;92.05;95616.66;4991905;28;20743;-76
2022/12/03 05:09:28;;;;;;;9.33;5.73;;;;;;;6.69;90.49;95606.06;4990754;28;20411;-76
2022/12/03 05:11:54;;;;;;;10.70;6.57;;;;;;;6.77;91.06;95634.00;4991203;28;20415;-76
2022/12/03 05:14:19;;;;;;;11.83;6.73;;;;;;;6.72;91.27;95628.47;4991540;28;20899;-76
2022/12/03 05:16:44;;;;;;;11.10;7.60;;;;;;;6.78;91.46;95630.41;4990753;28;20432;-76
2022/12/03 05:19:10;;;;;;;9.23;5.90;;;;;;;6.73;91.20;95611.78;4991753;28;20433;-76
2022/12/03 05:21:35;;;;;;;10.23;6.10;;;;;;;6.91;90.55;95635.13;4991844;28;20647;-75
2022/12/03 05:24:01;;;;;;;9.53;6.00;;;;;;;6.92;91.00;95640.16;4991738;28;20188;-77
2022/12/03 05:26:26;;;;;;;9.50;6.10;;;;;;;6.81;90.21;95619.59;4990541;28;20462;-76
2022/12/03 05:28:52;;;;;;;8.20;5.37;;;;;;;6.97;90.24;95640.47;4991564;28;20671;-75
2022/12/03 05:31:17;;;;;;;10.30;6.63;;;;;;;6.80;90.50;95637.09;4973124;28;20441;-75
2022/12/03 05:33:43;;;;;;;8.93;5.57;;;;;;;6.65;90.47;95620.47;4991137;28;20185;-75
2022/12/03 05:36:09;;;;;;;7.10;5.10;;;;;;;6.87;90.49;95650.31;4991282;28;20208;-75
2022/12/03 05:38:34;;;;;;;8.88;5.75;;;;;;;6.85;90.53;95641.81;4973725;28;20416;-75
2022/12/03 05:41:00;;;;;;;8.80;5.60;;;;;;;6.83;90.73;95623.66;4991780;28;20279;-75
2022/12/03 05:43:25;;;;;;;9.43;5.40;;;;;;;6.94;90.35;95651.28;4995359;28;20404;-74
2022/12/03 05:45:51;;;;;;;6.70;5.00;;;;;;;6.85;90.40;95644.44;4995360;28;20392;-74
2022/12/03 05:48:16;;;;;;;8.10;4.90;;;;;;;6.94;90.22;95648.66;4995326;28;20169;-74
2022/12/03 05:50:44;;;;;;;10.50;5.88;;;;;;;6.86;90.42;95651.31;4992775;28;20432;-75
2022/12/03 05:53:10;;;;;;;10.82;6.03;;;;;;;6.79;90.99;95656.41;4992012;28;20985;-74
2022/12/03 05:55:36;;;;;;;11.90;7.47;;;;;;;6.73;90.71;95638.75;4991478;28;20506;-74
2022/12/03 05:58:02;;;;;;;9.80;5.43;;;;;;;6.90;90.31;95664.88;4993221;28;20185;-75
2022/12/03 06:00:31;;;;;;;16.33;7.00;;;;;;;6.67;90.92;95647.25;4989981;28;20431;-75
2022/12/03 06:02:56;;;;;;;10.68;6.15;;;;;;;6.79;90.75;95668.66;4989276;28;20439;-75
2022/12/03 06:05:23;;;;;;;19.93;10.20;;;;;;;6.84;91.07;95668.97;4993943;28;20235;-75
2022/12/03 06:07:50;;;;;;;8.13;5.38;;;;;;;6.93;90.31;95669.75;4994326;28;20994;-74
2022/12/03 06:10:18;;;;;;;14.50;7.95;;;;;;;6.80;90.77;95676.34;4989878;28;20530;-74
2022/12/03 06:12:44;;;;;;;10.07;6.37;;;;;;;6.60;90.76;95662.00;4994700;28;20172;-73
2022/12/03 06:15:10;;;;;;;8.98;5.72;;;;;;;6.58;91.17;95678.81;4993529;28;20423;-73
2022/12/03 06:17:36;;;;;;;12.48;7.25;;;;;;;6.66;91.72;95679.63;4993386;28;20415;-74
2022/12/03 06:20:02;;;;;;;8.37;5.70;;;;;;;6.82;91.11;95679.63;4992987;28;20404;-74
2022/12/03 06:22:27;;;;;;;9.27;5.35;;;;;;;6.86;91.05;95685.31;4993559;28;20509;-74
2022/12/03 06:24:53;;;;;;;10.60;6.25;;;;;;;6.91;90.84;95687.47;4989352;28;20919;-75
2022/12/03 06:27:19;;;;;;;10.30;5.67;;;;;;;6.98;90.04;95691.03;4993763;28;20915;-74
2022/12/03 06:29:45;;;;;;;10.27;5.95;;;;;;;6.63;90.06;95666.09;4993570;28;20423;-74
2022/12/03 06:32:10;;;;;;;41.83;16.43;;;;;;;6.75;90.60;95683.03;4994563;28;20177;-75
2022/12/03 06:34:36;;;;;;;20.23;9.17;;;;;;;6.82;90.62;95689.28;4976351;28;20704;-75
2022/12/03 06:37:01;;;;;;;9.73;5.67;;;;;;;6.84;90.64;95687.28;4994344;28;20213;-74
2022/12/03 06:39:26;;;;;;;18.03;6.90;;;;;;;6.91;90.64;95682.22;4994452;28;20253;-75
2022/12/03 06:41:52;;;;;;;15.33;6.57;;;;;;;7.03;90.44;95688.72;4994139;28;20162;-74
2022/12/03 06:44:17;;;;;;;9.03;5.40;;;;;;;7.01;90.01;95694.13;4994197;28;20198;-74
2022/12/03 06:46:43;;;;;;;6.90;4.40;;;;;;;7.03;89.83;95681.69;4993767;28;20232;-74
2022/12/03 06:49:08;;;;;;;8.33;4.43;;;;;;;7.02;89.89;95684.47;4993210;28;20235;-73
2022/12/03 06:51:34;;;;;;;7.67;5.03;;;;;;;6.88;89.25;95675.50;4992698;28;20412;-74
2022/12/03 06:54:01;;;;;;;10.57;5.05;;;;;;;6.86;90.25;95679.28;4990878;28;20423;-74
2022/12/03 06:56:26;;;;;;;8.43;4.90;;;;;;;6.80;90.79;95671.13;4993134;28;20192;-74
2022/12/03 06:58:52;;;;;;;9.33;4.40;;;;;;;7.00;90.81;95689.88;4993372;28;20175;-76
2022/12/03 07:01:18;;;;;;;5.57;4.00;;;;;;;7.00;90.74;95686.44;4993842;28;20204;-76
2022/12/03 07:03:43;;;;;;;6.72;4.78;;;;;;;6.90;90.38;95691.06;4992920;28;20416;-75
2022/12/03 07:06:09;;;;;;;7.30;4.20;;;;;;;6.91;90.40;95687.47;4993843;28;20506;-76
2022/12/03 07:08:34;;;;;;;5.93;4.40;;;;;;;7.03;90.15;95693.94;4994501;28;21006;-75
2022/12/03 07:10:59;;;;;;;7.53;4.65;;;;;;;7.10;89.81;95711.44;4993764;28;20459;-75
2022/12/03 07:13:25;;;;;;;6.50;4.70;;;;;;;6.86;89.90;95680.09;4992569;28;20412;-76
2022/12/03 07:15:51;;;;;;;6.13;4.30;;;;;;;7.02;89.72;95706.22;4993867;28;20208;-76
2022/12/03 07:18:16;;;;;;;6.77;4.23;;;;;;;7.09;89.30;95706.38;4993805;28;20177;-75
2022/12/03 07:20:42;;;;;;;7.20;4.80;;;;;;;7.08;89.31;95710.81;4975721;28;20508;-75
2022/12/03 07:23:07;;;;;;;6.60;4.40;;;;;;;6.96;89.49;95706.91;4993756;28;20200;-75
2022/12/03 07:25:32;;;;;;;6.10;4.60;;;;;;;6.56;89.96;95660.72;4993610;28;20230;-75
2022/12/03 07:27:58;;;;;;;7.33;5.00;;;;;;;6.80;90.59;95712.16;4992954;28;20420;-75
2022/12/03 07:30:24;;;;;;;6.20;4.10;;;;;;;6.79;91.24;95711.34;4993419;28;20224;-75
2022/12/03 07:32:50;;;;;;;6.15;4.80;;;;;;;6.70;91.01;95716.75;4992501;28;20419;-75
2022/12/03 07:35:15;;;;;;;6.63;4.47;;;;;;;6.61;91.62;95713.34;4993333;28;20177;-75
2022/12/03 07:37:41;;;;;;;7.03;4.67;;;;;;;6.67;91.39;95709.22;4993654;28;20195;-75
2022/12/03 07:40:07;;;;;;;7.20;4.40;;;;;;;6.87;90.85;95728.84;4993626;28;20177;-75
2022/12/03 07:42:32;;;;;;;5.20;4.23;;;;;;;6.96;89.88;95721.78;4993630;28;20955;-75
2022/12/03 07:44:58;;;;;;;6.20;4.50;;;;;;;6.64;90.17;95696.50;4992156;28;20565;-75
2022/12/03 07:47:23;;;;;;;7.63;4.70;;;;;;;6.82;90.66;95712.81;4993438;28;20169;-76
2022/12/03 07:49:48;;;;;;;7.70;5.00;;;;;;;6.80;90.46;95722.63;4993180;28;20176;-75
2022/12/03 07:52:14;;;;;;;6.97;4.67;;;;;;;6.86;90.56;95724.56;4993137;28;20264;-75
2022/12/03 07:54:39;;;;;;;7.63;4.53;;;;;;;6.98;90.24;95730.28;4993115;28;20173;-75
2022/12/03 07:57:04;;;;;;;7.17;4.63;;;;;;;7.05;90.00;95724.22;4992953;28;20200;-76
2022/12/03 07:59:30;;;;;;;7.07;4.40;;;;;;;7.12;89.59;95719.94;4992974;28;20173;-76
2022/12/03 08:01:56;;;;;;;9.63;4.50;;;;;;;6.99;89.55;95700.53;4992993;28;20165;-76
2022/12/03 08:04:21;;;;;;;8.37;5.53;;;;;;;7.12;89.04;95733.03;4992610;28;20184;-76
2022/12/03 08:06:47;;;;;;;7.30;4.83;;;;;;;7.01;89.77;95722.09;5004698;28;20226;-76
2022/12/03 08:09:13;;;;;;;7.97;5.63;;;;;;;7.06;89.68;95722.41;4973476;28;20181;-76
2022/12/03 08:11:39;;;;;;;6.73;4.50;;;;;;;6.99;89.61;95714.44;4973431;28;20569;-76
2022/12/03 08:14:13;;;;;;;7.60;5.70;;;;;;;7.15;89.61;95727.47;4973549;28;20177;-76
2022/12/03 08:16:40;;;;;;;8.30;4.33;;;;;;;7.24;88.97;95732.69;4973347;28;20572;-75
2022/12/03 08:19:11;;;;;;;7.53;4.47;;;;;;;7.26;88.46;95735.97;4973328;28;20206;-76
2022/12/03 08:21:37;;;;;;;9.90;5.20;;;;;;;7.23;88.47;95737.09;4970246;28;20178;-75
2022/12/03 08:24:18;;;;;;;7.60;4.47;;;;;;;7.20;88.42;95745.28;4973522;28;20239;-78
2022/12/03 08:26:46;;;;;;;9.10;4.13;;;;;;;7.09;88.11;95735.19;4971883;28;20686;-75
2022/12/03 08:29:14;;;;;;;8.10;3.50;;;;;;;6.97;87.95;95739.94;4973106;28;20604;-76
2022/12/03 08:31:40;;;;;;;7.57;4.27;;;;;;;6.98;88.75;95743.38;4972848;28;20684;-76
2022/12/03 08:34:30;;;;;;;7.17;4.13;;;;;;;7.06;88.68;95749.41;4973315;28;20174;-75
2022/12/03 08:37:04;;;;;;;8.90;4.30;;;;;;;7.22;88.36;95751.16;4972890;28;20229;-76
2022/12/03 08:39:36;;;;;;;7.47;3.93;;;;;;;7.31;87.83;95752.78;4972995;28;20183;-76
2022/12/03 08:44:51;;;;;;;6.17;3.97;;;;;;;7.54;86.30;95748.44;4973302;28;20269;-76
2022/12/03 08:47:22;;;;;;;6.50;4.07;;;;;;;7.52;85.64;95749.63;4972869;28;20707;-77
2022/12/03 08:49:56;;;;;;;5.70;3.93;;;;;;;7.44;85.90;95737.34;4972800;28;20181;-76
2022/12/03 08:52:31;;;;;;;6.07;4.30;;;;;;;7.54;85.12;95745.00;4972699;28;20183;-76
2022/12/03 08:54:56;;;;;;;5.63;3.73;;;;;;;7.32;85.82;95746.56;4972412;28;20188;-77
2022/12/03 08:57:33;;;;;;;7.00;3.60;;;;;;;7.29;85.95;95748.69;4972361;28;20300;-76
2022/12/03 09:00:24;;;;;;;6.10;4.20;;;;;;;7.39;86.75;95749.31;4971347;28;20260;-76
2022/12/03 09:02:59;;;;;;;8.17;4.70;;;;;;;7.30;85.71;95719.72;4968135;28;20209;-76
2022/12/03 09:05:28;;;;;;;8.63;4.90;;;;;;;7.42;85.62;95752.44;4971353;28;20255;-76
2022/12/03 09:07:54;;;;;;;10.10;4.90;;;;;;;7.34;85.81;95714.97;4988144;28;20542;-76
2022/12/03 09:10:20;;;;;;;8.00;5.40;;;;;;;7.45;84.72;95727.69;4990955;28;20192;-76
2022/12/03 09:12:45;;;;;;;8.10;4.63;;;;;;;7.35;85.70;95748.81;4990852;28;20576;-77
2022/12/03 09:15:10;;;;;;;8.10;4.87;;;;;;;7.28;86.78;95744.44;4991459;28;20180;-76
2022/12/03 09:17:36;;;;;;;8.53;4.17;;;;;;;7.25;86.89;95727.28;4990729;28;20177;-77
2022/12/03 09:20:03;;;;;;;7.67;4.93;;;;;;;7.36;86.31;95719.03;4991410;28;20184;-76
2022/12/03 09:22:29;;;;;;;8.10;4.70;;;;;;;7.44;85.35;95733.91;4991407;28;20211;-76
2022/12/03 09:24:54;;;;;;;6.97;4.30;;;;;;;7.22;86.13;95711.06;4991893;28;20222;-77
2022/12/03 09:27:21;;;;;;;7.23;4.67;;;;;;;7.22;86.86;95726.78;4992045;28;20600;-77
2022/12/03 09:29:47;;;;;;;8.73;5.03;;;;;;;7.41;85.90;95723.78;4991664;28;20250;-77
2022/12/03 09:32:12;;;;;;;7.67;5.17;;;;;;;7.55;85.37;95739.59;4991713;28;20652;-77
2022/12/03 09:34:38;;;;;;;10.10;5.83;;;;;;;7.61;85.68;95735.47;4990105;28;20657;-76
2022/12/03 09:37:03;;;;;;;8.37;5.47;;;;;;;7.68;85.71;95733.81;4991117;28;20201;-75
2022/12/03 09:39:28;;;;;;;8.53;5.47;;;;;;;7.64;85.34;95729.06;4991194;28;20644;-75
2022/12/03 09:41:54;;;;;;;8.23;4.93;;;;;;;7.44;85.80;95739.13;4990919;28;20184;-76
2022/12/03 09:44:20;;;;;;;9.93;5.40;;;;;;;7.38;86.26;95738.03;4990540;28;20196;-75
2022/12/03 09:46:48;;;;;;;9.53;5.27;;;;;;;7.28;86.57;95731.34;4990831;28;20232;-76
2022/12/03 09:49:17;;;;;;;12.07;5.17;;;;;;;7.30;86.34;95730.19;4990052;28;20634;-76
2022/12/03 09:51:44;;;;;;;13.17;5.50;;;;;;;7.20;86.43;95725.16;4990698;28;20276;-76
2022/12/03 09:54:16;;;;;;;10.00;5.17;;;;;;;7.13;87.30;95724.19;4991169;28;20176;-75
2022/12/03 09:56:41;;;;;;;10.20;5.73;;;;;;;7.22;87.54;95718.94;4991101;28;20346;-75
2022/12/03 09:59:14;;;;;;;11.90;6.40;;;;;;;7.30;86.88;95718.91;4990995;28;20256;-76
2022/12/03 10:01:40;;;;;;;12.03;6.37;;;;;;;7.12;87.24;95712.09;4990843;28;20263;-75
2022/12/03 10:04:06;;;;;;;10.37;6.10;;;;;;;7.20;87.41;95713.84;4990808;28;20616;-74
2022/12/03 10:06:31;;;;;;;10.40;6.57;;;;;;;7.20;87.56;95714.69;4990765;28;20280;-76
2022/12/03 10:08:58;;;;;;;10.87;5.83;;;;;;;7.34;87.52;95705.31;4991031;28;20205;-76
2022/12/03 10:11:25;;;;;;;10.37;5.63;;;;;;;7.48;86.73;95706.41;4991076;28;20640;-75
2022/12/03 10:13:56;;;;;;;10.63;5.87;;;;;;;7.46;86.16;95695.25;4990815;28;20557;-76
2022/12/03 10:16:22;;;;;;;9.67;5.90;;;;;;;7.48;86.03;95701.97;4990701;28;20367;-75
2022/12/03 10:18:51;;;;;;;11.33;5.90;;;;;;;7.28;87.61;95705.16;4990767;28;20180;-74
2022/12/03 10:21:31;;;;;;;8.77;5.37;;;;;;;7.41;88.08;95697.59;4990527;28;20251;-74
2022/12/03 10:24:19;;;;;;;10.63;5.93;;;;;;;7.63;87.08;95699.44;4990219;28;20169;-75
2022/12/03 10:26:47;;;;;;;8.97;5.87;;;;;;;7.77;85.56;95690.03;4990527;28;20196;-74
2022/12/03 10:29:16;;;;;;;25.13;6.80;;;;;;;7.90;84.89;95692.91;4994389;28;20181;-74
2022/12/03 10:31:41;;;;;;;8.97;5.77;;;;;;;7.72;84.84;95666.16;4993627;28;20670;-75
2022/12/03 10:34:08;;;;;;;9.47;5.57;;;;;;;7.92;85.37;95683.06;4993512;28;20181;-74
2022/12/03 10:36:34;;;;;;;10.87;6.37;;;;;;;8.00;84.56;95690.88;4992448;28;20755;-74
2022/12/03 10:39:12;;;;;;;11.57;5.70;;;;;;;8.06;84.04;95692.78;4991002;28;20427;-75
2022/12/03 10:41:39;;;;;;;10.17;5.93;;;;;;;7.99;83.83;95688.41;4992694;28;20180;-74
2022/12/03 10:44:16;;;;;;;12.07;6.20;;;;;;;7.89;84.40;95686.84;4992774;28;20533;-75
2022/12/03 10:46:42;;;;;;;11.10;5.97;;;;;;;7.83;84.49;95684.09;4992464;28;20165;-74
2022/12/03 10:49:18;;;;;;;10.80;6.40;;;;;;;7.62;85.55;95676.03;4993257;28;20173;-75
2022/12/03 10:51:46;;;;;;;7.80;4.97;;;;;;;7.72;85.17;95687.94;4993493;28;20177;-74
2022/12/03 10:54:21;;;;;;;10.37;5.80;;;;;;;7.72;85.05;95680.06;4993478;28;20354;-75
2022/12/03 10:56:49;;;;;;;11.30;6.40;;;;;;;7.65;84.30;95658.16;4993374;28;20192;-74
2022/12/03 10:59:21;;;;;;;10.70;6.17;;;;;;;7.78;84.45;95678.56;4993592;28;20815;-75
2022/12/03 11:01:47;;;;;;;13.00;6.00;;;;;;;7.80;84.16;95669.53;4993322;28;20173;-75
2022/12/03 11:04:30;;;;;;;8.67;5.90;;;;;;;7.91;84.05;95673.56;4993195;28;20264;-75
2022/12/03 11:06:56;;;;;;;8.03;5.03;;;;;;;7.96;83.77;95672.03;4993219;28;20213;-74
2022/12/03 11:09:27;;;;;;;9.33;5.60;;;;;;;7.95;83.65;95673.06;4993058;28;20192;-75
2022/12/03 11:11:53;;;;;;;8.17;5.47;;;;;;;7.93;84.03;95674.22;4993044;28;20185;-74
2022/12/03 11:14:50;;;;;;;9.13;5.60;;;;;;;7.77;84.31;95667.28;4992956;28;20177;-74
2022/12/03 11:17:43;;;;;;;10.80;6.23;;;;;;;7.88;84.54;95666.84;4992962;28;20212;-74
2022/12/03 11:20:23;;;;;;;9.13;5.43;;;;;;;7.83;84.04;95671.00;4992844;28;20177;-74
2022/12/03 11:22:56;;;;;;;10.00;5.87;;;;;;;7.76;84.37;95663.03;4992674;28;20181;-74
2022/12/03 11:25:28;;;;;;;10.87;5.73;;;;;;;7.78;85.14;95663.66;4992791;28;20379;-74
2022/12/03 11:28:14;;;;;;;10.03;6.57;;;;;;;7.68;85.13;95663.06;4993083;28;20659;-74
2022/12/03 11:30:49;;;;;;;9.63;5.70;;;;;;;7.67;85.27;95663.25;4992635;28;20173;-74
2022/12/03 11:33:35;;;;;;;8.57;5.53;;;;;;;7.70;84.69;95666.31;4992665;28;20216;-74
2022/12/03 11:36:04;;;;;;;9.43;5.83;;;;;;;7.61;84.87;95654.25;4992382;28;20637;-74
2022/12/03 11:38:35;;;;;;;9.47;5.67;;;;;;;7.56;85.73;95651.34;4992262;28;20256;-74
2022/12/03 11:41:19;;;;;;;8.80;5.70;;;;;;;7.68;86.34;95654.41;4992111;28;20173;-74
2022/12/03 11:43:50;;;;;;;12.50;6.50;;;;;;;7.89;84.87;95657.19;4992544;28;20173;-74
2022/12/03 11:46:28;;;;;;;9.70;5.43;;;;;;;7.97;84.51;95650.09;4992383;28;20181;-74
2022/12/03 11:48:56;;;;;;;10.40;5.53;;;;;;;7.99;83.71;95651.72;4992341;28;20179;-74
2022/12/03 11:51:25;;;;;;;10.57;5.73;;;;;;;8.02;84.01;95646.94;4992433;28;20686;-74
2022/12/03 11:53:53;;;;;;;12.97;5.60;;;;;;;8.03;83.73;95648.59;4992496;28;20650;-74
2022/12/03 11:56:23;;;;;;;7.53;5.23;;;;;;;8.07;83.04;95643.78;4974654;28;20656;-74
2022/12/03 11:58:58;;;;;;;12.80;6.23;;;;;;;8.06;83.40;95642.97;4992121;28;20189;-74